Hovedside
METAR-TAF:

METAR-TAF

Lufthavner :

Wattisham, England

breddegrad: 52-07N, lengdegrad: 000-58E, høyde over havet: 87 m

Gjeldene værobservasjon

Denne rapporten ble laget for 44 minutter siden, klokken 21:50 UTC
Vind 8 kt fra Sør
Temperatur 13°C
Luftfuktighet 72%
Trykk 998 hPa
Sikt 10 km eller mer

METAR: EGUW 142150Z AUTO 19008KT 9999 OVC130/// 13/08 Q0998

Tid: 23:34 (22:34 UTC)

Varsel

Denne rapporten ble laget for 9 timer og 4 minutter siden, klokken 13:30 UTC
Varsel gyldig fra 14. klokken 15 UTC til 14. klokken 19 UTC
Vind 14 kt fra Sør-sørvest
Sikt 10 km eller mer
Spredte skyer i en høyde av 3000 ft
Sannsynlighet 30% :
Midlertidig
fra 14. klokken 15 UTC til 14. klokken 19 UTC
Sikt: 3000 m
Brutte skyer i en høyde av 1800 ft, Bygeskyer.
torden, mye regn,

TAF: EGUW 141330Z 1415/1419 21014KT 9999 SCT030 PROB30 TEMPO 1415/1419 3000 +TSRA BKN018CB

Værobservasjoner og værvarsel for over 4000 flyplasser (METAR- og TAF-rapporter).

Tilgjengelige stasjoner er representert av de røde og gule prikkene på kartet.

Hold musepekeren over prikken for å se navnet på stasjonen.

Klikk så for å se værobservasjoner og -varsler.

For å forandre kartet kan du klikke på den grønne knappen med svart kryss for å zoome inn, på den grønne knappen med strek for å zoome ut, eller på de grønne pilene for å se tilstøtende kart.


METAR-TAF: